Terminal Aerodrome Forecast
Issued by NWS

Home | Current Version | Previous Version | Text Only | Print | Product List | Glossary On
Versions: 1 2 3 4 5 6 7 8 9 10 11 12 13 14 15 16 17 18 19
420
FTUS43 KDTX 051125
TAFDET
TAF
KDET 051125Z 0512/0612 25009KT P6SM OVC025
     FM060000 18005KT P6SM SCT018
     FM060800 07005KT 4SM BR BKN015=

USA.gov is the U.S. government's official web portal to all federal, state and local government web resources and services.